Terminal Aerodrome Forecast
Issued by NWS Twin Cities, MN

Home | Current Version | Previous Version | Graphics & Text | Print | Product List | Glossary On
Versions: 1 2 3 4 5 6 7 8 9 10 11 12 13 14 15 16 17 18 19 20 21 22 23
000
FTUS43 KMPX 290527 CCA
TAFEAU
TAF COR
KEAU 290527Z 2906/3006 00000KT 2SM BR BKN002
      TEMPO 2906/2909 1/4SM FG VV001
     FM290900 00000KT 1SM BR BKN001
      TEMPO 2909/2913 1/4SM FG VV001
     FM291300 30005KT 6SM BR OVC050
     FM292200 32009G15KT P6SM VCTS SCT050CB BKN120
     FM300400 33007KT P6SM SKC=

USA.gov is the U.S. government's official web portal to all federal, state and local government web resources and services.